sensor_id;sensor_type;location;lat;lon;timestamp;pressure;altitude;pressure_sealevel;temperature;humidity
12077;BME280;12420;42.676;23.262;2022-12-07T00:02:04;94566.03;;;7.91;100.00
12077;BME280;12420;42.676;23.262;2022-12-07T00:04:31;94508.41;;;7.52;100.00
12077;BME280;12420;42.676;23.262;2022-12-07T00:06:58;94555.56;;;7.78;100.00
12077;BME280;12420;42.676;23.262;2022-12-07T00:09:24;94576.91;;;7.72;100.00
12077;BME280;12420;42.676;23.262;2022-12-07T00:11:52;94549.69;;;7.57;100.00
12077;BME280;12420;42.676;23.262;2022-12-07T00:14:19;94537.63;;;7.66;100.00
12077;BME280;12420;42.676;23.262;2022-12-07T00:16:48;94528.16;;;7.56;100.00
12077;BME280;12420;42.676;23.262;2022-12-07T00:19:17;94558.84;;;7.77;100.00
12077;BME280;12420;42.676;23.262;2022-12-07T00:21:44;94549.84;;;7.76;100.00
12077;BME280;12420;42.676;23.262;2022-12-07T00:24:11;94552.34;;;7.74;100.00
12077;BME280;12420;42.676;23.262;2022-12-07T00:26:40;94535.91;;;7.57;100.00
12077;BME280;12420;42.676;23.262;2022-12-07T00:29:13;94554.06;;;7.77;100.00
12077;BME280;12420;42.676;23.262;2022-12-07T00:31:41;94497.47;;;7.41;100.00
12077;BME280;12420;42.676;23.262;2022-12-07T00:34:12;94559.84;;;7.79;100.00
12077;BME280;12420;42.676;23.262;2022-12-07T00:36:41;94576.63;;;7.76;100.00
12077;BME280;12420;42.676;23.262;2022-12-07T00:39:08;94537.91;;;7.57;100.00
12077;BME280;12420;42.676;23.262;2022-12-07T00:41:35;94572.34;;;7.80;100.00
12077;BME280;12420;42.676;23.262;2022-12-07T00:44:02;94549.44;;;7.61;100.00
12077;BME280;12420;42.676;23.262;2022-12-07T00:46:29;94546.47;;;7.53;100.00
12077;BME280;12420;42.676;23.262;2022-12-07T00:48:56;94552.97;;;7.56;100.00
12077;BME280;12420;42.676;23.262;2022-12-07T00:51:25;94553.19;;;7.58;100.00
12077;BME280;12420;42.676;23.262;2022-12-07T00:53:53;94554.97;;;7.50;100.00
12077;BME280;12420;42.676;23.262;2022-12-07T00:56:21;94551.63;;;7.68;100.00
12077;BME280;12420;42.676;23.262;2022-12-07T00:58:53;94546.44;;;7.59;100.00
12077;BME280;12420;42.676;23.262;2022-12-07T01:01:21;94562.22;;;7.53;100.00
12077;BME280;12420;42.676;23.262;2022-12-07T01:03:48;94544.50;;;7.48;100.00
12077;BME280;12420;42.676;23.262;2022-12-07T01:06:17;94554.38;;;7.68;100.00
12077;BME280;12420;42.676;23.262;2022-12-07T01:08:44;94542.72;;;7.51;100.00
12077;BME280;12420;42.676;23.262;2022-12-07T01:11:14;94539.03;;;7.31;100.00
12077;BME280;12420;42.676;23.262;2022-12-07T01:13:42;94553.34;;;7.24;100.00
12077;BME280;12420;42.676;23.262;2022-12-07T01:16:11;94502.22;;;6.76;100.00
12077;BME280;12420;42.676;23.262;2022-12-07T01:18:38;94521.44;;;6.93;100.00
12077;BME280;12420;42.676;23.262;2022-12-07T01:21:08;94521.00;;;6.78;100.00
12077;BME280;12420;42.676;23.262;2022-12-07T01:23:36;94524.66;;;7.03;100.00
12077;BME280;12420;42.676;23.262;2022-12-07T01:26:04;94505.16;;;7.01;100.00
12077;BME280;12420;42.676;23.262;2022-12-07T01:28:33;94420.13;;;6.27;100.00
12077;BME280;12420;42.676;23.262;2022-12-07T01:31:03;94500.00;;;6.69;100.00
12077;BME280;12420;42.676;23.262;2022-12-07T01:33:32;94542.91;;;7.06;100.00
12077;BME280;12420;42.676;23.262;2022-12-07T01:36:02;94523.38;;;7.09;100.00
12077;BME280;12420;42.676;23.262;2022-12-07T01:38:30;94545.72;;;6.83;100.00
12077;BME280;12420;42.676;23.262;2022-12-07T01:40:58;94475.22;;;6.80;100.00
12077;BME280;12420;42.676;23.262;2022-12-07T01:43:27;94516.09;;;7.17;100.00
12077;BME280;12420;42.676;23.262;2022-12-07T01:45:57;94521.59;;;7.12;100.00
12077;BME280;12420;42.676;23.262;2022-12-07T01:48:26;94510.06;;;7.19;100.00
12077;BME280;12420;42.676;23.262;2022-12-07T01:50:56;94449.19;;;6.81;100.00
12077;BME280;12420;42.676;23.262;2022-12-07T01:53:28;94479.88;;;6.96;100.00
12077;BME280;12420;42.676;23.262;2022-12-07T01:55:56;94496.28;;;7.25;100.00
12077;BME280;12420;42.676;23.262;2022-12-07T01:58:25;94515.44;;;7.47;100.00
12077;BME280;12420;42.676;23.262;2022-12-07T02:00:52;94497.56;;;7.18;100.00
12077;BME280;12420;42.676;23.262;2022-12-07T02:03:24;94507.50;;;7.38;100.00
12077;BME280;12420;42.676;23.262;2022-12-07T02:05:54;94510.91;;;7.50;100.00
12077;BME280;12420;42.676;23.262;2022-12-07T02:08:22;94481.53;;;7.22;100.00
12077;BME280;12420;42.676;23.262;2022-12-07T02:10:50;94511.44;;;7.48;100.00
12077;BME280;12420;42.676;23.262;2022-12-07T02:13:20;94513.91;;;7.52;100.00
12077;BME280;12420;42.676;23.262;2022-12-07T02:16:03;94516.63;;;7.57;100.00
12077;BME280;12420;42.676;23.262;2022-12-07T02:18:49;94510.09;;;7.60;100.00
12077;BME280;12420;42.676;23.262;2022-12-07T02:21:34;94438.63;;;7.02;100.00
12077;BME280;12420;42.676;23.262;2022-12-07T02:24:19;94505.13;;;7.59;100.00
12077;BME280;12420;42.676;23.262;2022-12-07T02:27:17;94503.84;;;7.60;100.00
12077;BME280;12420;42.676;23.262;2022-12-07T02:29:58;94473.47;;;7.35;100.00
12077;BME280;12420;42.676;23.262;2022-12-07T02:32:35;94504.31;;;7.64;100.00
12077;BME280;12420;42.676;23.262;2022-12-07T02:35:08;94496.34;;;7.55;100.00
12077;BME280;12420;42.676;23.262;2022-12-07T02:37:41;94454.00;;;7.22;100.00
12077;BME280;12420;42.676;23.262;2022-12-07T02:40:14;94497.09;;;7.55;100.00
12077;BME280;12420;42.676;23.262;2022-12-07T02:42:48;94491.19;;;7.40;100.00
12077;BME280;12420;42.676;23.262;2022-12-07T02:45:20;94490.03;;;7.24;100.00
12077;BME280;12420;42.676;23.262;2022-12-07T02:47:51;94440.59;;;7.02;100.00
12077;BME280;12420;42.676;23.262;2022-12-07T02:50:20;94492.16;;;7.43;100.00
12077;BME280;12420;42.676;23.262;2022-12-07T02:52:47;94467.06;;;7.16;100.00
12077;BME280;12420;42.676;23.262;2022-12-07T02:55:15;94487.69;;;7.39;100.00
12077;BME280;12420;42.676;23.262;2022-12-07T02:57:54;94395.47;;;6.74;100.00
12077;BME280;12420;42.676;23.262;2022-12-07T03:00:26;94442.78;;;7.14;100.00
12077;BME280;12420;42.676;23.262;2022-12-07T03:02:58;94496.97;;;7.36;100.00
12077;BME280;12420;42.676;23.262;2022-12-07T03:05:52;94472.97;;;7.31;100.00
12077;BME280;12420;42.676;23.262;2022-12-07T03:08:30;94433.13;;;7.02;100.00
12077;BME280;12420;42.676;23.262;2022-12-07T03:11:03;94459.25;;;7.26;100.00
12077;BME280;12420;42.676;23.262;2022-12-07T03:13:37;94469.44;;;7.36;100.00
12077;BME280;12420;42.676;23.262;2022-12-07T03:16:23;94434.38;;;6.95;100.00
12077;BME280;12420;42.676;23.262;2022-12-07T03:18:58;94469.81;;;7.16;100.00
12077;BME280;12420;42.676;23.262;2022-12-07T03:21:29;94465.28;;;7.18;100.00
12077;BME280;12420;42.676;23.262;2022-12-07T03:24:00;94454.34;;;7.07;100.00
12077;BME280;12420;42.676;23.262;2022-12-07T03:26:32;94473.56;;;7.13;100.00
12077;BME280;12420;42.676;23.262;2022-12-07T03:29:05;94477.88;;;7.03;100.00
12077;BME280;12420;42.676;23.262;2022-12-07T03:31:39;94476.63;;;7.04;100.00
12077;BME280;12420;42.676;23.262;2022-12-07T03:34:11;94474.63;;;6.99;100.00
12077;BME280;12420;42.676;23.262;2022-12-07T03:36:43;94484.38;;;7.05;100.00
12077;BME280;12420;42.676;23.262;2022-12-07T03:39:19;94463.63;;;6.99;100.00
12077;BME280;12420;42.676;23.262;2022-12-07T03:41:51;94484.34;;;7.11;100.00
12077;BME280;12420;42.676;23.262;2022-12-07T03:44:20;94420.28;;;6.58;100.00
12077;BME280;12420;42.676;23.262;2022-12-07T03:46:54;94417.81;;;6.48;100.00
12077;BME280;12420;42.676;23.262;2022-12-07T03:49:31;94378.88;;;6.33;100.00
12077;BME280;12420;42.676;23.262;2022-12-07T03:52:06;94470.69;;;6.88;100.00
12077;BME280;12420;42.676;23.262;2022-12-07T03:54:40;94463.94;;;6.84;100.00
12077;BME280;12420;42.676;23.262;2022-12-07T03:57:11;94469.63;;;6.97;100.00
12077;BME280;12420;42.676;23.262;2022-12-07T03:59:39;94466.41;;;6.93;100.00
12077;BME280;12420;42.676;23.262;2022-12-07T04:02:11;94471.38;;;6.94;100.00
12077;BME280;12420;42.676;23.262;2022-12-07T04:04:39;94453.69;;;6.84;100.00
12077;BME280;12420;42.676;23.262;2022-12-07T04:07:06;94453.25;;;6.74;100.00
12077;BME280;12420;42.676;23.262;2022-12-07T04:09:33;94465.41;;;6.96;100.00
12077;BME280;12420;42.676;23.262;2022-12-07T04:12:01;94460.13;;;6.98;100.00
12077;BME280;12420;42.676;23.262;2022-12-07T04:14:28;94383.84;;;6.40;100.00
12077;BME280;12420;42.676;23.262;2022-12-07T04:16:56;94451.88;;;6.98;100.00
12077;BME280;12420;42.676;23.262;2022-12-07T04:19:27;94470.38;;;7.03;100.00
12077;BME280;12420;42.676;23.262;2022-12-07T04:21:55;94465.88;;;7.00;100.00
12077;BME280;12420;42.676;23.262;2022-12-07T04:24:22;94474.09;;;7.06;100.00
12077;BME280;12420;42.676;23.262;2022-12-07T04:26:49;94467.34;;;7.07;100.00
12077;BME280;12420;42.676;23.262;2022-12-07T04:29:17;94476.09;;;7.11;100.00
12077;BME280;12420;42.676;23.262;2022-12-07T04:31:44;94447.03;;;6.57;100.00
12077;BME280;12420;42.676;23.262;2022-12-07T04:34:13;94442.47;;;6.71;100.00
12077;BME280;12420;42.676;23.262;2022-12-07T04:36:41;94457.13;;;6.96;100.00
12077;BME280;12420;42.676;23.262;2022-12-07T04:39:14;94464.88;;;7.03;100.00
12077;BME280;12420;42.676;23.262;2022-12-07T04:41:43;94465.38;;;7.02;100.00
12077;BME280;12420;42.676;23.262;2022-12-07T04:44:12;94479.38;;;7.04;100.00
12077;BME280;12420;42.676;23.262;2022-12-07T04:46:40;94437.09;;;6.37;100.00
12077;BME280;12420;42.676;23.262;2022-12-07T04:49:07;94473.84;;;7.09;100.00
12077;BME280;12420;42.676;23.262;2022-12-07T04:51:35;94452.16;;;6.89;100.00
12077;BME280;12420;42.676;23.262;2022-12-07T04:54:05;94432.97;;;6.78;100.00
12077;BME280;12420;42.676;23.262;2022-12-07T04:56:32;94470.66;;;7.00;100.00
12077;BME280;12420;42.676;23.262;2022-12-07T04:59:01;94450.44;;;6.86;100.00
12077;BME280;12420;42.676;23.262;2022-12-07T05:01:28;94472.06;;;7.12;100.00
12077;BME280;12420;42.676;23.262;2022-12-07T05:03:55;94472.56;;;7.16;100.00
12077;BME280;12420;42.676;23.262;2022-12-07T05:06:22;94458.63;;;7.03;100.00
12077;BME280;12420;42.676;23.262;2022-12-07T05:08:50;94482.34;;;7.11;100.00
12077;BME280;12420;42.676;23.262;2022-12-07T05:11:19;94482.13;;;7.04;100.00
12077;BME280;12420;42.676;23.262;2022-12-07T05:14:07;94484.09;;;7.09;100.00
12077;BME280;12420;42.676;23.262;2022-12-07T05:16:39;94477.63;;;7.01;100.00
12077;BME280;12420;42.676;23.262;2022-12-07T05:19:08;94467.66;;;6.98;100.00
12077;BME280;12420;42.676;23.262;2022-12-07T05:21:36;94486.88;;;7.03;100.00
12077;BME280;12420;42.676;23.262;2022-12-07T05:24:06;94481.66;;;7.00;100.00
12077;BME280;12420;42.676;23.262;2022-12-07T05:26:38;94391.94;;;6.21;100.00
12077;BME280;12420;42.676;23.262;2022-12-07T05:29:05;94372.66;;;6.27;100.00
12077;BME280;12420;42.676;23.262;2022-12-07T05:31:32;94470.41;;;6.98;100.00
12077;BME280;12420;42.676;23.262;2022-12-07T05:34:02;94472.13;;;7.01;100.00
12077;BME280;12420;42.676;23.262;2022-12-07T05:36:29;94471.34;;;7.06;100.00
12077;BME280;12420;42.676;23.262;2022-12-07T05:38:57;94418.78;;;6.62;100.00
12077;BME280;12420;42.676;23.262;2022-12-07T05:41:24;94465.16;;;7.00;100.00
12077;BME280;12420;42.676;23.262;2022-12-07T05:44:09;94450.13;;;7.01;100.00
12077;BME280;12420;42.676;23.262;2022-12-07T05:46:37;94460.81;;;7.15;100.00
12077;BME280;12420;42.676;23.262;2022-12-07T05:49:04;94458.34;;;7.06;100.00
12077;BME280;12420;42.676;23.262;2022-12-07T05:51:31;94455.13;;;7.02;100.00
12077;BME280;12420;42.676;23.262;2022-12-07T05:53:57;94457.63;;;7.00;100.00
12077;BME280;12420;42.676;23.262;2022-12-07T05:56:25;94393.13;;;6.32;100.00
12077;BME280;12420;42.676;23.262;2022-12-07T05:58:52;94468.25;;;6.68;100.00
12077;BME280;12420;42.676;23.262;2022-12-07T06:01:57;94451.78;;;6.62;100.00
12077;BME280;12420;42.676;23.262;2022-12-07T06:04:26;94427.09;;;6.40;100.00
12077;BME280;12420;42.676;23.262;2022-12-07T06:06:53;94460.03;;;6.62;100.00
12077;BME280;12420;42.676;23.262;2022-12-07T06:09:22;94480.47;;;6.78;100.00
12077;BME280;12420;42.676;23.262;2022-12-07T06:11:49;94450.25;;;6.67;100.00
12077;BME280;12420;42.676;23.262;2022-12-07T06:14:33;94455.44;;;6.82;100.00
12077;BME280;12420;42.676;23.262;2022-12-07T06:17:02;94471.88;;;6.99;100.00
12077;BME280;12420;42.676;23.262;2022-12-07T06:19:28;94479.13;;;7.07;100.00
12077;BME280;12420;42.676;23.262;2022-12-07T06:21:55;94478.84;;;7.11;100.00
12077;BME280;12420;42.676;23.262;2022-12-07T06:24:22;94455.69;;;6.84;100.00
12077;BME280;12420;42.676;23.262;2022-12-07T06:26:49;94477.59;;;7.06;100.00
12077;BME280;12420;42.676;23.262;2022-12-07T06:29:19;94494.31;;;7.14;100.00
12077;BME280;12420;42.676;23.262;2022-12-07T06:31:45;94428.44;;;6.80;100.00
12077;BME280;12420;42.676;23.262;2022-12-07T06:34:16;94480.53;;;7.25;100.00
12077;BME280;12420;42.676;23.262;2022-12-07T06:36:44;94486.50;;;7.29;100.00
12077;BME280;12420;42.676;23.262;2022-12-07T06:39:11;94526.03;;;7.32;100.00
12077;BME280;12420;42.676;23.262;2022-12-07T06:41:38;94474.50;;;7.27;100.00
12077;BME280;12420;42.676;23.262;2022-12-07T06:44:05;94459.53;;;7.16;100.00
12077;BME280;12420;42.676;23.262;2022-12-07T06:46:32;94485.03;;;7.23;100.00
12077;BME280;12420;42.676;23.262;2022-12-07T06:49:00;94473.31;;;7.16;100.00
12077;BME280;12420;42.676;23.262;2022-12-07T06:51:29;94408.63;;;6.93;100.00
12077;BME280;12420;42.676;23.262;2022-12-07T06:53:56;94493.94;;;7.46;100.00
12077;BME280;12420;42.676;23.262;2022-12-07T06:56:23;94473.50;;;7.24;100.00
12077;BME280;12420;42.676;23.262;2022-12-07T06:58:50;94483.16;;;7.42;100.00
12077;BME280;12420;42.676;23.262;2022-12-07T07:01:18;94492.13;;;7.54;100.00
12077;BME280;12420;42.676;23.262;2022-12-07T07:03:45;94422.34;;;6.99;100.00
12077;BME280;12420;42.676;23.262;2022-12-07T07:06:13;94459.50;;;7.22;100.00
12077;BME280;12420;42.676;23.262;2022-12-07T07:08:42;94453.00;;;7.25;100.00
12077;BME280;12420;42.676;23.262;2022-12-07T07:11:09;94451.97;;;7.28;100.00
12077;BME280;12420;42.676;23.262;2022-12-07T07:13:36;94490.63;;;7.53;100.00
12077;BME280;12420;42.676;23.262;2022-12-07T07:16:03;94455.97;;;7.27;100.00
12077;BME280;12420;42.676;23.262;2022-12-07T07:18:30;94493.38;;;7.53;100.00
12077;BME280;12420;42.676;23.262;2022-12-07T07:20:57;94482.44;;;7.42;100.00
12077;BME280;12420;42.676;23.262;2022-12-07T07:23:24;94506.56;;;7.66;100.00
12077;BME280;12420;42.676;23.262;2022-12-07T07:25:52;94484.31;;;7.58;100.00
12077;BME280;12420;42.676;23.262;2022-12-07T07:28:20;94506.31;;;7.69;100.00
12077;BME280;12420;42.676;23.262;2022-12-07T07:30:46;94464.22;;;7.33;100.00
12077;BME280;12420;42.676;23.262;2022-12-07T07:33:13;94523.38;;;7.62;100.00
12077;BME280;12420;42.676;23.262;2022-12-07T07:35:40;94502.34;;;7.59;100.00
12077;BME280;12420;42.676;23.262;2022-12-07T07:38:08;94502.06;;;7.63;100.00
12077;BME280;12420;42.676;23.262;2022-12-07T07:40:35;94503.97;;;7.79;100.00
12077;BME280;12420;42.676;23.262;2022-12-07T07:43:03;94504.00;;;7.73;100.00
12077;BME280;12420;42.676;23.262;2022-12-07T07:45:30;94516.19;;;7.83;100.00
12077;BME280;12420;42.676;23.262;2022-12-07T07:47:57;94503.69;;;7.82;100.00
12077;BME280;12420;42.676;23.262;2022-12-07T07:50:24;94490.47;;;7.75;100.00
12077;BME280;12420;42.676;23.262;2022-12-07T07:52:51;94479.00;;;7.66;100.00
12077;BME280;12420;42.676;23.262;2022-12-07T07:55:18;94503.69;;;7.82;100.00
12077;BME280;12420;42.676;23.262;2022-12-07T07:57:44;94499.66;;;7.83;100.00
12077;BME280;12420;42.676;23.262;2022-12-07T08:00:15;94501.19;;;7.85;100.00
12077;BME280;12420;42.676;23.262;2022-12-07T08:02:42;94503.19;;;7.84;100.00
12077;BME280;12420;42.676;23.262;2022-12-07T08:05:10;94505.50;;;7.74;100.00
12077;BME280;12420;42.676;23.262;2022-12-07T08:07:37;94498.47;;;7.79;100.00
12077;BME280;12420;42.676;23.262;2022-12-07T08:10:05;94482.75;;;7.68;100.00
12077;BME280;12420;42.676;23.262;2022-12-07T08:12:36;94464.13;;;7.44;100.00
12077;BME280;12420;42.676;23.262;2022-12-07T08:15:03;94495.78;;;7.68;100.00
12077;BME280;12420;42.676;23.262;2022-12-07T08:17:32;94500.31;;;7.65;100.00
12077;BME280;12420;42.676;23.262;2022-12-07T08:19:59;94495.81;;;7.62;100.00
12077;BME280;12420;42.676;23.262;2022-12-07T08:22:26;94494.53;;;7.69;100.00
12077;BME280;12420;42.676;23.262;2022-12-07T08:24:53;94503.31;;;7.67;100.00
12077;BME280;12420;42.676;23.262;2022-12-07T08:27:20;94493.56;;;7.66;100.00
12077;BME280;12420;42.676;23.262;2022-12-07T08:29:52;94493.28;;;7.70;100.00
12077;BME280;12420;42.676;23.262;2022-12-07T08:32:18;94498.53;;;7.68;100.00
12077;BME280;12420;42.676;23.262;2022-12-07T08:34:47;94474.34;;;7.55;100.00
12077;BME280;12420;42.676;23.262;2022-12-07T08:37:14;94498.72;;;7.75;100.00
12077;BME280;12420;42.676;23.262;2022-12-07T08:39:41;94495.94;;;7.81;100.00
12077;BME280;12420;42.676;23.262;2022-12-07T08:42:07;94482.75;;;7.68;100.00
12077;BME280;12420;42.676;23.262;2022-12-07T08:44:34;94497.44;;;7.82;100.00
12077;BME280;12420;42.676;23.262;2022-12-07T08:47:03;94502.94;;;7.46;100.00
12077;BME280;12420;42.676;23.262;2022-12-07T08:49:33;94485.91;;;7.83;100.00
12077;BME280;12420;42.676;23.262;2022-12-07T08:52:05;94474.72;;;7.70;100.00
12077;BME280;12420;42.676;23.262;2022-12-07T08:54:34;94453.03;;;7.61;100.00
12077;BME280;12420;42.676;23.262;2022-12-07T08:57:02;94418.31;;;7.47;100.00
12077;BME280;12420;42.676;23.262;2022-12-07T08:59:29;94450.38;;;7.80;100.00
12077;BME280;12420;42.676;23.262;2022-12-07T09:01:57;94477.19;;;8.10;100.00
12077;BME280;12420;42.676;23.262;2022-12-07T09:04:26;94457.94;;;8.04;100.00
12077;BME280;12420;42.676;23.262;2022-12-07T09:06:54;94422.13;;;7.74;100.00
12077;BME280;12420;42.676;23.262;2022-12-07T09:09:22;94471.16;;;8.11;100.00
12077;BME280;12420;42.676;23.262;2022-12-07T09:11:49;94406.78;;;7.78;100.00
12077;BME280;12420;42.676;23.262;2022-12-07T09:14:16;94457.72;;;8.26;100.00
12077;BME280;12420;42.676;23.262;2022-12-07T09:16:44;94421.22;;;7.60;100.00
12077;BME280;12420;42.676;23.262;2022-12-07T09:19:10;94428.88;;;8.03;100.00
12077;BME280;12420;42.676;23.262;2022-12-07T09:21:37;94455.88;;;8.40;100.00
12077;BME280;12420;42.676;23.262;2022-12-07T09:24:05;94478.91;;;8.43;100.00
12077;BME280;12420;42.676;23.262;2022-12-07T09:26:33;94452.75;;;8.50;100.00
12077;BME280;12420;42.676;23.262;2022-12-07T09:29:00;94431.50;;;8.20;100.00
12077;BME280;12420;42.676;23.262;2022-12-07T09:31:28;94424.88;;;8.04;100.00
12077;BME280;12420;42.676;23.262;2022-12-07T09:33:55;94396.84;;;8.00;100.00
12077;BME280;12420;42.676;23.262;2022-12-07T09:36:23;94445.59;;;8.41;100.00
12077;BME280;12420;42.676;23.262;2022-12-07T09:38:50;94438.84;;;8.36;100.00
12077;BME280;12420;42.676;23.262;2022-12-07T09:41:17;94427.56;;;8.40;100.00
12077;BME280;12420;42.676;23.262;2022-12-07T09:43:46;94426.97;;;8.47;100.00
12077;BME280;12420;42.676;23.262;2022-12-07T09:46:14;94430.66;;;8.55;100.00
12077;BME280;12420;42.676;23.262;2022-12-07T09:48:44;94384.44;;;8.37;100.00
12077;BME280;12420;42.676;23.262;2022-12-07T09:51:15;94421.19;;;8.69;100.00
12077;BME280;12420;42.676;23.262;2022-12-07T09:53:43;94425.66;;;8.73;100.00
12077;BME280;12420;42.676;23.262;2022-12-07T09:56:14;94411.94;;;8.67;100.00
12077;BME280;12420;42.676;23.262;2022-12-07T09:58:42;94427.97;;;8.93;100.00
12077;BME280;12420;42.676;23.262;2022-12-07T10:01:13;94409.31;;;8.80;100.00
12077;BME280;12420;42.676;23.262;2022-12-07T10:03:49;94422.59;;;9.20;100.00
12077;BME280;12420;42.676;23.262;2022-12-07T10:06:17;94413.06;;;8.77;100.00
12077;BME280;12420;42.676;23.262;2022-12-07T10:08:46;94419.16;;;9.13;100.00
12077;BME280;12420;42.676;23.262;2022-12-07T10:11:13;94382.28;;;8.92;100.00
12077;BME280;12420;42.676;23.262;2022-12-07T10:13:45;94412.13;;;9.31;100.00
12077;BME280;12420;42.676;23.262;2022-12-07T10:16:37;94401.16;;;9.26;100.00
12077;BME280;12420;42.676;23.262;2022-12-07T10:19:23;94407.13;;;9.30;100.00
12077;BME280;12420;42.676;23.262;2022-12-07T10:22:02;94405.03;;;9.36;100.00
12077;BME280;12420;42.676;23.262;2022-12-07T10:24:29;94386.78;;;9.14;100.00
12077;BME280;12420;42.676;23.262;2022-12-07T10:26:57;94381.34;;;9.08;100.00
12077;BME280;12420;42.676;23.262;2022-12-07T10:29:29;94390.09;;;9.26;100.00
12077;BME280;12420;42.676;23.262;2022-12-07T10:31:59;94279.00;;;8.68;100.00
12077;BME280;12420;42.676;23.262;2022-12-07T10:34:28;94296.50;;;8.90;100.00
12077;BME280;12420;42.676;23.262;2022-12-07T10:37:14;94359.03;;;9.39;100.00
12077;BME280;12420;42.676;23.262;2022-12-07T10:39:45;94360.63;;;9.34;100.00
12077;BME280;12420;42.676;23.262;2022-12-07T10:42:17;94342.13;;;9.29;100.00
12077;BME280;12420;42.676;23.262;2022-12-07T10:44:45;94367.38;;;9.52;100.00
12077;BME280;12420;42.676;23.262;2022-12-07T10:47:21;94360.25;;;9.56;100.00
12077;BME280;12420;42.676;23.262;2022-12-07T10:50:22;94340.00;;;9.35;100.00
12077;BME280;12420;42.676;23.262;2022-12-07T10:53:13;94356.41;;;9.46;100.00
12077;BME280;12420;42.676;23.262;2022-12-07T10:56:03;94363.25;;;9.59;100.00
12077;BME280;12420;42.676;23.262;2022-12-07T10:58:40;94347.41;;;9.59;100.00
12077;BME280;12420;42.676;23.262;2022-12-07T11:01:20;94348.16;;;9.60;100.00
12077;BME280;12420;42.676;23.262;2022-12-07T11:04:10;94319.34;;;9.55;100.00
12077;BME280;12420;42.676;23.262;2022-12-07T11:06:46;94326.69;;;9.52;100.00
12077;BME280;12420;42.676;23.262;2022-12-07T11:12:09;94321.25;;;9.47;100.00
12077;BME280;12420;42.676;23.262;2022-12-07T11:14:47;94328.84;;;9.60;100.00
12077;BME280;12420;42.676;23.262;2022-12-07T11:17:23;94314.09;;;9.38;100.00
12077;BME280;12420;42.676;23.262;2022-12-07T11:20:05;94319.88;;;9.53;100.00
12077;BME280;12420;42.676;23.262;2022-12-07T11:22:46;94315.63;;;9.52;100.00
12077;BME280;12420;42.676;23.262;2022-12-07T11:25:26;94325.94;;;9.52;100.00
12077;BME280;12420;42.676;23.262;2022-12-07T11:28:08;94269.28;;;9.32;100.00
12077;BME280;12420;42.676;23.262;2022-12-07T11:30:45;94211.84;;;8.98;100.00
12077;BME280;12420;42.676;23.262;2022-12-07T11:33:20;94252.75;;;9.13;100.00
12077;BME280;12420;42.676;23.262;2022-12-07T11:36:02;94284.75;;;9.67;100.00
12077;BME280;12420;42.676;23.262;2022-12-07T11:38:43;94285.59;;;9.62;100.00
12077;BME280;12420;42.676;23.262;2022-12-07T11:41:12;94220.41;;;9.27;100.00
12077;BME280;12420;42.676;23.262;2022-12-07T11:43:55;94247.63;;;9.49;100.00
12077;BME280;12420;42.676;23.262;2022-12-07T11:46:26;94240.50;;;9.54;100.00
12077;BME280;12420;42.676;23.262;2022-12-07T11:48:59;94247.31;;;9.66;100.00
12077;BME280;12420;42.676;23.262;2022-12-07T11:51:33;94317.72;;;10.18;100.00
12077;BME280;12420;42.676;23.262;2022-12-07T11:54:04;94254.25;;;9.86;100.00
12077;BME280;12420;42.676;23.262;2022-12-07T11:56:34;94237.25;;;9.82;100.00
12077;BME280;12420;42.676;23.262;2022-12-07T11:59:09;94252.53;;;9.96;100.00
12077;BME280;12420;42.676;23.262;2022-12-07T12:01:50;94295.84;;;10.34;100.00
12077;BME280;12420;42.676;23.262;2022-12-07T12:04:35;94285.72;;;10.36;100.00
12077;BME280;12420;42.676;23.262;2022-12-07T12:07:07;94255.72;;;10.14;100.00
12077;BME280;12420;42.676;23.262;2022-12-07T12:09:40;94267.00;;;10.29;100.00
12077;BME280;12420;42.676;23.262;2022-12-07T12:12:23;94243.16;;;10.39;100.00
12077;BME280;12420;42.676;23.262;2022-12-07T12:15:03;94271.44;;;10.59;100.00
12077;BME280;12420;42.676;23.262;2022-12-07T12:17:48;94225.09;;;10.38;100.00
12077;BME280;12420;42.676;23.262;2022-12-07T12:20:25;94227.47;;;10.55;100.00
12077;BME280;12420;42.676;23.262;2022-12-07T12:22:59;94260.06;;;10.83;100.00
12077;BME280;12420;42.676;23.262;2022-12-07T12:25:29;94263.78;;;10.86;100.00
12077;BME280;12420;42.676;23.262;2022-12-07T12:28:03;94148.03;;;9.95;100.00
12077;BME280;12420;42.676;23.262;2022-12-07T12:30:34;94261.06;;;11.07;100.00
12077;BME280;12420;42.676;23.262;2022-12-07T12:33:04;94242.47;;;11.15;100.00
12077;BME280;12420;42.676;23.262;2022-12-07T12:35:35;94242.41;;;11.28;100.00
12077;BME280;12420;42.676;23.262;2022-12-07T12:38:31;94244.50;;;11.36;100.00
12077;BME280;12420;42.676;23.262;2022-12-07T12:41:00;94238.06;;;11.41;100.00
12077;BME280;12420;42.676;23.262;2022-12-07T12:43:49;94228.88;;;11.46;100.00
12077;BME280;12420;42.676;23.262;2022-12-07T12:49:38;94246.44;;;11.48;100.00
12077;BME280;12420;42.676;23.262;2022-12-07T12:55:19;94258.75;;;11.61;100.00
12077;BME280;12420;42.676;23.262;2022-12-07T12:58:21;94248.19;;;11.59;100.00
12077;BME280;12420;42.676;23.262;2022-12-07T13:03:54;94253.03;;;11.38;100.00
12077;BME280;12420;42.676;23.262;2022-12-07T13:06:34;94249.47;;;11.58;100.00
12077;BME280;12420;42.676;23.262;2022-12-07T13:09:03;94249.53;;;11.66;100.00
12077;BME280;12420;42.676;23.262;2022-12-07T13:11:34;94249.47;;;11.58;100.00
12077;BME280;12420;42.676;23.262;2022-12-07T13:14:43;94248.13;;;11.51;100.00
12077;BME280;12420;42.676;23.262;2022-12-07T13:20:45;94244.75;;;11.45;100.00
12077;BME280;12420;42.676;23.262;2022-12-07T13:23:14;94245.72;;;11.48;100.00
12077;BME280;12420;42.676;23.262;2022-12-07T13:25:49;94243.16;;;11.50;100.00
12077;BME280;12420;42.676;23.262;2022-12-07T13:28:19;94227.19;;;11.43;100.00